Погода Сарайна 2 недели

Скопье, Македония

14 - 27 июля
  • 14июля
    Сегодня
    +21°
    +39°
    Практически безоблачно
    ВремяПогодаТемператураВлажностьДавлениеВетер, м/сВероятность осадков
    02:00Ясно и безоблачно+23°C53 %736 мм0.8 м/с2 %
    05:00Ясно и безоблачно+21°C54 %736 мм1.4 м/с2 %
    08:00Ясно и безоблачно+26°C41 %737 мм0.5 м/с2 %
    11:00Ясно и безоблачно+33°C34 %737 мм1.2 м/с2 %
    14:00Практически безоблачно+38°C25 %736 мм1.3 м/с2 %
    17:00Небольшая облачность+38°C27 %735 мм2.7 м/с4 %
    20:00Практически безоблачно+33°C45 %735 мм1.6 м/с1 %
    23:00Ясно и безоблачно+28°C63 %736 мм1.5 м/с2 %
  • 15июля
    Понедельник
    +21°
    +40°
    Практически безоблачно
    ВремяПогодаТемператураВлажностьДавлениеВетер, м/сВероятность осадков
    02:00Ясно и безоблачно+24°C69 %736 мм1.7 м/с2 %
    05:00Ясно и безоблачно+21°C64 %736 мм1.5 м/с2 %
    08:00Ясно и безоблачно+27°C45 %737 мм0.9 м/с2 %
    11:00Ясно и безоблачно+34°C28 %737 мм1.1 м/с2 %
    14:00Практически безоблачно+39°C20 %736 мм2.6 м/с2 %
    17:00Практически безоблачно+39°C20 %735 мм2.6 м/с2 %
    20:00Ясно и безоблачно+33°C31 %735 мм1.5 м/с2 %
    23:00Ясно и безоблачно+29°C36 %736 мм0.6 м/с2 %
  • 16июля
    Вторник
    +21°
    +40°
    Ясно и безоблачно
    ВремяПогодаТемператураВлажностьДавлениеВетер, м/сВероятность осадков
    02:00Ясно и безоблачно+23°C54 %736 мм1.6 м/с2 %
    05:00Ясно и безоблачно+22°C47 %736 мм0.5 м/с2 %
    08:00Ясно и безоблачно+27°C41 %737 мм0.7 м/с2 %
    11:00Ясно и безоблачно+34°C24 %737 мм1.1 м/с2 %
    14:00Ясно и безоблачно+40°C14 %736 мм1.9 м/с2 %
    17:00Ясно и безоблачно+40°C13 %735 мм0.9 м/с2 %
    20:00Ясно и безоблачно+35°C20 %735 мм1.9 м/с2 %
    23:00Ясно и безоблачно+29°C31 %735 мм1.3 м/с2 %
  • 17июля
    Среда
    +21°
    +41°
    Ясно и безоблачно
    ВремяПогодаТемператураВлажностьДавлениеВетер, м/сВероятность осадков
    02:00Ясно и безоблачно+24°C43 %736 мм1.4 м/с2 %
    05:00Ясно и безоблачно+22°C44 %736 мм1.0 м/с2 %
    08:00Ясно и безоблачно+27°C35 %738 мм1.0 м/с2 %
    11:00Ясно и безоблачно+35°C24 %738 мм0.9 м/с2 %
    14:00Ясно и безоблачно+40°C18 %737 мм1.9 м/с2 %
    17:00Ясно и безоблачно+40°C17 %736 мм2.0 м/с2 %
    20:00Практически безоблачно+33°C29 %736 мм1.7 м/с2 %
    23:00Ясно и безоблачно+29°C39 %737 мм1.4 м/с2 %
  • 18июля
    Четверг
    +23°
    +42°
    Ясно и безоблачно
    ВремяПогодаТемператураВлажностьДавлениеВетер, м/сВероятность осадков
    02:00Ясно и безоблачно+26°C53 %737 мм1.6 м/с2 %
    05:00Практически безоблачно+22°C56 %737 мм1.6 м/с2 %
    08:00Практически безоблачно+28°C36 %739 мм0.7 м/с2 %
    11:00Ясно и безоблачно+36°C24 %739 мм0.9 м/с2 %
    14:00Ясно и безоблачно+41°C19 %737 мм1.6 м/с4 %
    17:00Ясно и безоблачно+41°C16 %736 мм0.4 м/с10 %
    20:00Ясно и безоблачно+34°C30 %736 мм1.8 м/с4 %
    23:00Ясно и безоблачно+29°C54 %737 мм1.4 м/с2 %
Мы используем cookies
Соглашаюсь